createdAt,value
2018-12-19T00:00:56.989Z,82.17
2018-12-19T00:03:24.538Z,83.37
2018-12-19T00:05:52.078Z,81.47
2018-12-19T00:08:19.995Z,84.80
2018-12-19T00:10:47.534Z,84.53
2018-12-19T00:13:15.892Z,93.13
2018-12-19T00:15:43.474Z,87.07
2018-12-19T00:18:11.020Z,89.70
2018-12-19T00:20:38.558Z,86.63
2018-12-19T00:23:06.134Z,80.47
2018-12-19T00:25:33.806Z,68.73
2018-12-19T00:28:01.346Z,70.13
2018-12-19T00:30:28.926Z,47.63
2018-12-19T00:32:56.464Z,56.80
2018-12-19T00:35:24.059Z,73.30
2018-12-19T00:37:51.634Z,75.80
2018-12-19T00:40:19.183Z,58.30
2018-12-19T00:42:47.467Z,63.20
2018-12-19T00:45:15.068Z,61.23
2018-12-19T00:47:42.878Z,59.50
2018-12-19T00:50:10.421Z,60.03
2018-12-19T00:52:38.061Z,52.13
2018-12-19T00:55:05.607Z,47.87
2018-12-19T00:57:33.158Z,51.60
2018-12-19T01:00:00.735Z,55.07
2018-12-19T01:02:28.342Z,59.87
2018-12-19T01:04:55.888Z,64.97
2018-12-19T01:07:23.478Z,81.40
2018-12-19T01:09:51.185Z,67.80
2018-12-19T01:12:18.726Z,52.60
2018-12-19T01:14:46.346Z,50.50
2018-12-19T01:17:13.887Z,55.23
2018-12-19T01:19:41.420Z,53.33
2018-12-19T01:22:09.004Z,49.03
2018-12-19T01:24:36.556Z,46.90
2018-12-19T01:27:04.106Z,46.60
2018-12-19T01:29:31.734Z,43.37
2018-12-19T01:31:59.313Z,38.53
2018-12-19T01:34:26.882Z,39.23
2018-12-19T01:36:54.518Z,39.43
2018-12-19T01:39:22.599Z,43.77
2018-12-19T01:41:50.573Z,42.47
2018-12-19T01:44:18.176Z,48.70
2018-12-19T01:46:45.710Z,45.57
2018-12-19T01:49:13.371Z,45.60
2018-12-19T01:51:40.954Z,43.17
2018-12-19T01:54:08.494Z,44.13
2018-12-19T01:56:36.034Z,43.00
2018-12-19T01:59:03.679Z,43.10
2018-12-19T02:01:31.227Z,45.20
2018-12-19T02:03:58.766Z,46.60
2018-12-19T02:06:26.341Z,41.90
2018-12-19T02:08:53.882Z,39.37
2018-12-19T02:11:21.422Z,42.33
2018-12-19T02:13:49.002Z,42.30
2018-12-19T02:16:16.818Z,41.93
2018-12-19T02:18:44.450Z,41.83
2018-12-19T02:21:18.325Z,43.07
2018-12-19T02:23:45.864Z,40.50
2018-12-19T02:26:13.441Z,37.83
2018-12-19T02:28:41.054Z,41.07
2018-12-19T02:31:08.631Z,41.50
2018-12-19T02:33:36.342Z,40.17
2018-12-19T02:36:03.938Z,37.40
2018-12-19T02:38:31.511Z,37.17
2018-12-19T02:40:59.084Z,40.20
2018-12-19T02:43:26.654Z,43.83
2018-12-19T02:45:54.186Z,43.73
2018-12-19T02:48:21.728Z,43.10
2018-12-19T02:50:49.443Z,42.60
2018-12-19T02:53:16.995Z,35.47
2018-12-19T02:55:44.547Z,33.30
2018-12-19T02:58:12.155Z,34.73
2018-12-19T03:00:39.715Z,34.03
2018-12-19T03:03:07.263Z,29.53
2018-12-19T03:05:34.850Z,27.97
2018-12-19T03:08:02.446Z,27.97
2018-12-19T03:10:30.028Z,27.03
2018-12-19T03:12:57.966Z,26.00
2018-12-19T03:15:25.535Z,26.33
2018-12-19T03:17:53.144Z,25.87
2018-12-19T03:20:20.720Z,25.30
2018-12-19T03:22:48.268Z,25.30
2018-12-19T03:25:15.841Z,25.67
2018-12-19T03:27:43.441Z,27.47
2018-12-19T03:30:10.978Z,31.03
2018-12-19T03:32:38.521Z,27.97
2018-12-19T03:35:06.085Z,30.37
2018-12-19T03:37:33.674Z,30.50
2018-12-19T03:40:01.267Z,29.97
2018-12-19T03:42:28.862Z,29.73
2018-12-19T03:44:56.407Z,31.03
2018-12-19T03:47:23.979Z,32.30
2018-12-19T03:49:51.670Z,31.30
2018-12-19T03:52:19.513Z,33.27
2018-12-19T03:54:47.132Z,34.03
2018-12-19T03:57:15.622Z,33.50
2018-12-19T03:59:43.162Z,34.03
2018-12-19T04:02:10.702Z,32.27
2018-12-19T04:04:38.678Z,32.67
2018-12-19T04:07:06.215Z,31.83
2018-12-19T04:09:33.755Z,33.83
2018-12-19T04:12:01.330Z,32.20
2018-12-19T04:14:28.873Z,31.23
2018-12-19T04:16:57.344Z,29.53
2018-12-19T04:19:24.966Z,31.43
2018-12-19T04:21:52.503Z,29.27
2018-12-19T04:24:20.062Z,29.87
2018-12-19T04:26:47.634Z,30.47
2018-12-19T04:29:15.181Z,28.20
2018-12-19T04:31:42.761Z,24.57
2018-12-19T04:34:10.528Z,24.00
2018-12-19T04:36:38.064Z,24.87
2018-12-19T04:39:06.250Z,26.40
2018-12-19T04:41:33.813Z,26.53
2018-12-19T04:44:01.386Z,29.50
2018-12-19T04:46:29.019Z,30.47
2018-12-19T04:48:56.697Z,31.60
2018-12-19T04:51:24.235Z,32.60
2018-12-19T04:53:51.927Z,28.43
2018-12-19T04:56:19.517Z,29.23
2018-12-19T04:58:47.255Z,30.13
2018-12-19T05:01:14.962Z,30.80
2018-12-19T05:03:42.813Z,30.30
2018-12-19T05:06:10.346Z,32.43
2018-12-19T05:08:37.883Z,31.30
2018-12-19T05:11:05.469Z,30.13
2018-12-19T05:13:33.037Z,31.63
2018-12-19T05:16:00.570Z,31.77
2018-12-19T05:18:28.159Z,34.73
2018-12-19T05:20:55.764Z,31.30
2018-12-19T05:23:23.305Z,31.17
2018-12-19T05:25:50.892Z,31.27
2018-12-19T05:28:18.422Z,33.93
2018-12-19T05:30:45.969Z,35.00
2018-12-19T05:33:13.565Z,34.93
2018-12-19T05:35:41.104Z,35.30
2018-12-19T05:38:08.637Z,34.97
2018-12-19T05:40:36.222Z,34.80
2018-12-19T05:43:03.770Z,39.17
2018-12-19T05:45:31.317Z,51.60
2018-12-19T05:47:58.889Z,85.67
2018-12-19T05:50:26.849Z,121.80
2018-12-19T05:52:54.396Z,117.97
2018-12-19T05:55:22.208Z,121.13
2018-12-19T05:57:49.830Z,119.03
2018-12-19T06:00:17.552Z,109.60
2018-12-19T06:02:46.155Z,92.07
2018-12-19T06:05:13.707Z,71.70
2018-12-19T06:07:41.262Z,79.17
2018-12-19T06:10:08.977Z,73.83
2018-12-19T06:12:36.531Z,79.27
2018-12-19T06:15:04.446Z,93.30
2018-12-19T06:17:32.553Z,94.37
2018-12-19T06:20:00.317Z,88.67
2018-12-19T06:22:27.885Z,71.20
2018-12-19T06:25:01.474Z,75.53
2018-12-19T06:27:29.023Z,89.13
2018-12-19T06:29:56.684Z,87.60
2018-12-19T06:32:24.268Z,80.27
2018-12-19T06:34:51.907Z,84.07
2018-12-19T06:37:19.479Z,85.17
2018-12-19T06:39:47.078Z,81.93
2018-12-19T06:42:14.754Z,85.47
2018-12-19T06:44:42.320Z,78.37
2018-12-19T06:47:09.911Z,80.57
2018-12-19T06:49:37.464Z,79.57
2018-12-19T06:52:05.015Z,83.20
2018-12-19T06:54:32.636Z,83.13
2018-12-19T06:57:00.540Z,73.27
2018-12-19T06:59:28.139Z,72.37
2018-12-19T07:01:55.811Z,71.00
2018-12-19T07:04:23.419Z,70.03
2018-12-19T07:06:51.205Z,67.60
2018-12-19T07:09:19.232Z,66.13
2018-12-19T07:11:46.792Z,69.83
2018-12-19T07:14:14.345Z,72.47
2018-12-19T07:16:43.660Z,74.63
2018-12-19T07:19:11.413Z,81.67
2018-12-19T07:21:38.966Z,88.47
2018-12-19T07:24:06.876Z,89.07
2018-12-19T07:26:34.422Z,84.77
2018-12-19T07:29:01.968Z,78.40
2018-12-19T07:31:29.541Z,78.30
2018-12-19T07:33:57.086Z,89.80
2018-12-19T07:36:24.630Z,86.90
2018-12-19T07:38:52.216Z,86.70
2018-12-19T07:41:19.769Z,85.23
2018-12-19T07:43:47.326Z,128.18
2018-12-19T07:46:19.831Z,99.80
2018-12-19T07:48:44.621Z,96.65
2018-12-19T07:51:12.168Z,94.43
2018-12-19T07:53:39.771Z,106.10
2018-12-19T07:56:07.994Z,99.70
2018-12-19T07:58:35.974Z,94.07
2018-12-19T08:01:03.866Z,96.47
2018-12-19T08:03:31.412Z,96.70
2018-12-19T08:05:58.997Z,95.63
2018-12-19T08:08:26.652Z,106.10
2018-12-19T08:10:54.279Z,92.70
2018-12-19T08:13:22.012Z,83.50
2018-12-19T08:15:49.807Z,81.47
2018-12-19T08:18:17.513Z,92.57
2018-12-19T08:20:45.070Z,99.87
2018-12-19T08:23:12.661Z,103.70
2018-12-19T08:25:40.355Z,104.13
2018-12-19T08:28:08.081Z,144.75
2018-12-19T08:30:35.661Z,134.03
2018-12-19T08:33:04.034Z,123.47
2018-12-19T08:35:32.470Z,152.27
2018-12-19T08:38:00.079Z,150.50
2018-12-19T08:40:28.056Z,140.07
2018-12-19T08:42:55.905Z,103.37
2018-12-19T08:45:23.981Z,109.07
2018-12-19T08:47:51.601Z,125.07
2018-12-19T08:50:19.147Z,123.93
2018-12-19T08:52:47.578Z,110.97
2018-12-19T08:55:16.451Z,114.57
2018-12-19T08:57:44.742Z,102.10
2018-12-19T09:00:12.426Z,92.83
2018-12-19T09:02:40.338Z,66.03
2018-12-19T09:05:08.333Z,45.20
2018-12-19T09:07:35.992Z,59.87
2018-12-19T09:10:05.428Z,57.87
2018-12-19T09:12:32.990Z,58.70
2018-12-19T09:15:00.653Z,72.33
2018-12-19T09:17:28.578Z,88.03
2018-12-19T09:19:56.431Z,87.13
2018-12-19T09:22:25.159Z,80.90
2018-12-19T09:24:53.604Z,81.40
2018-12-19T09:27:21.475Z,70.97
2018-12-19T09:29:49.238Z,93.43
2018-12-19T09:32:16.784Z,87.20
2018-12-19T09:34:44.362Z,89.07
2018-12-19T09:37:11.958Z,87.27
2018-12-19T09:39:39.676Z,51.53
2018-12-19T09:42:07.337Z,125.93
2018-12-19T09:44:35.406Z,102.30
2018-12-19T09:47:03.275Z,83.17
2018-12-19T09:49:31.038Z,72.47
2018-12-19T09:51:58.630Z,65.27
2018-12-19T09:54:26.286Z,93.00
2018-12-19T09:56:53.867Z,77.60
2018-12-19T09:59:21.490Z,68.43
2018-12-19T10:01:49.138Z,70.57
2018-12-19T10:04:16.690Z,47.70
2018-12-19T10:06:44.336Z,45.10
2018-12-19T10:09:14.977Z,51.37
2018-12-19T10:11:42.151Z,44.50
2018-12-19T10:14:09.881Z,45.30
2018-12-19T10:16:37.529Z,46.97
2018-12-19T10:19:05.150Z,50.73
2018-12-19T10:21:32.754Z,39.13
2018-12-19T10:24:00.301Z,38.03
2018-12-19T10:26:28.192Z,39.73
2018-12-19T10:28:56.393Z,41.37
2018-12-19T10:31:24.122Z,43.10
2018-12-19T10:33:51.666Z,47.03
2018-12-19T10:36:21.807Z,50.63
2018-12-19T10:38:49.881Z,40.33
2018-12-19T10:41:17.585Z,49.87
2018-12-19T10:43:45.692Z,101.13
2018-12-19T10:46:13.677Z,41.50
2018-12-19T10:48:41.363Z,38.10
2018-12-19T10:51:08.950Z,37.93
2018-12-19T10:53:36.493Z,54.43
2018-12-19T10:56:04.194Z,46.30
2018-12-19T10:58:31.981Z,53.37
2018-12-19T11:01:00.376Z,48.60
2018-12-19T11:03:28.346Z,51.30
2018-12-19T11:05:55.925Z,51.37
2018-12-19T11:08:23.614Z,55.30
2018-12-19T11:10:51.205Z,58.27
2018-12-19T11:13:19.979Z,59.00
2018-12-19T11:15:47.697Z,59.73
2018-12-19T11:18:15.249Z,57.57
2018-12-19T11:20:42.872Z,56.87
2018-12-19T11:23:10.438Z,59.60
2018-12-19T11:25:38.206Z,56.70
2018-12-19T11:28:05.779Z,57.07
2018-12-19T11:30:33.513Z,57.67
2018-12-19T11:33:01.600Z,47.20
2018-12-19T11:35:29.779Z,33.27
2018-12-19T11:37:57.623Z,33.17
2018-12-19T11:40:25.715Z,30.17
2018-12-19T11:42:53.934Z,41.87
2018-12-19T11:45:22.063Z,42.47
2018-12-19T11:47:49.800Z,45.33
2018-12-19T11:50:17.643Z,43.23
2018-12-19T11:52:45.864Z,41.47
2018-12-19T11:55:13.705Z,39.13
2018-12-19T11:57:42.003Z,40.03
2018-12-19T12:00:09.548Z,41.80
2018-12-19T12:02:37.301Z,45.53
2018-12-19T12:05:05.584Z,44.77
2018-12-19T12:07:33.444Z,42.33
2018-12-19T12:10:01.305Z,40.00
2018-12-19T12:12:29.581Z,40.53
2018-12-19T12:14:57.776Z,40.57
2018-12-19T12:17:25.350Z,41.23
2018-12-19T12:19:53.187Z,41.37
2018-12-19T12:22:21.042Z,42.40
2018-12-19T12:24:50.496Z,41.87
2018-12-19T12:27:18.889Z,44.97
2018-12-19T12:29:46.686Z,44.17
2018-12-19T12:32:14.226Z,47.33
2018-12-19T12:34:42.372Z,49.63
2018-12-19T12:37:10.642Z,51.47
2018-12-19T12:39:38.340Z,51.43
2018-12-19T12:42:05.937Z,50.50
2018-12-19T12:44:33.676Z,52.47
2018-12-19T12:47:01.788Z,50.03
2018-12-19T12:49:29.510Z,52.50
2018-12-19T12:51:58.675Z,52.13
2018-12-19T12:54:28.091Z,53.67
2018-12-19T12:56:57.243Z,56.53
2018-12-19T12:59:25.261Z,65.90
2018-12-19T13:01:53.960Z,86.93
2018-12-19T13:04:21.746Z,79.73
2018-12-19T13:06:49.386Z,73.57
2018-12-19T13:09:17.448Z,78.20
2018-12-19T13:11:46.903Z,82.63
2018-12-19T13:14:16.565Z,76.57
2018-12-19T13:16:44.530Z,83.37
2018-12-19T13:19:13.773Z,85.97
2018-12-19T13:21:42.703Z,77.30
2018-12-19T13:24:10.281Z,78.40
2018-12-19T13:26:38.294Z,68.83
2018-12-19T13:29:05.847Z,77.87
2018-12-19T13:31:33.413Z,66.03
2018-12-19T13:34:01.281Z,74.90
2018-12-19T13:36:28.845Z,92.80
2018-12-19T13:38:56.389Z,100.50
2018-12-19T13:41:24.205Z,100.73
2018-12-19T13:43:51.772Z,93.40
2018-12-19T13:46:19.321Z,93.37
2018-12-19T13:48:46.915Z,104.60
2018-12-19T13:51:14.475Z,140.17
2018-12-19T13:53:42.042Z,143.43
2018-12-19T13:56:10.224Z,131.17
2018-12-19T13:58:38.677Z,124.23
2018-12-19T14:01:06.556Z,116.87
2018-12-19T14:03:34.383Z,369.10
2018-12-19T14:06:02.153Z,209.70
2018-12-19T14:08:30.076Z,136.27
2018-12-19T14:10:57.659Z,199.60
2018-12-19T14:13:25.202Z,115.40
2018-12-19T14:15:52.758Z,101.63
2018-12-19T14:18:20.593Z,112.37
2018-12-19T14:20:48.166Z,147.90
2018-12-19T14:23:16.485Z,134.93
2018-12-19T14:25:44.350Z,125.70
2018-12-19T14:28:11.922Z,110.43
2018-12-19T14:30:39.669Z,106.50
2018-12-19T14:33:07.416Z,99.40
2018-12-19T14:35:34.991Z,84.93
2018-12-19T14:38:02.656Z,98.53
2018-12-19T14:40:30.975Z,75.63
2018-12-19T14:42:58.547Z,60.50
2018-12-19T14:45:26.131Z,72.57
2018-12-19T14:47:53.836Z,63.17
2018-12-19T14:50:21.463Z,69.97
2018-12-19T14:52:49.331Z,58.87
2018-12-19T14:55:16.944Z,47.77
2018-12-19T14:57:44.512Z,53.33
2018-12-19T15:00:12.190Z,72.03
2018-12-19T15:02:39.783Z,113.60
2018-12-19T15:05:07.446Z,108.17
2018-12-19T15:07:34.998Z,98.13
2018-12-19T15:10:03.118Z,89.43
2018-12-19T15:12:31.129Z,114.33
2018-12-19T15:14:58.713Z,112.30
2018-12-19T15:17:26.315Z,125.97
2018-12-19T15:19:53.927Z,121.93
2018-12-19T15:22:21.479Z,126.70
2018-12-19T15:24:49.470Z,154.67
2018-12-19T15:27:17.023Z,143.13
2018-12-19T15:29:44.871Z,139.30
2018-12-19T15:32:12.490Z,141.77
2018-12-19T15:34:40.044Z,134.90
2018-12-19T15:37:08.500Z,162.03
2018-12-19T15:39:36.244Z,201.67
2018-12-19T15:42:03.790Z,182.97
2018-12-19T15:44:31.341Z,191.57
2018-12-19T15:46:58.941Z,178.40
2018-12-19T15:49:26.651Z,225.23
2018-12-19T15:51:54.749Z,216.93
2018-12-19T15:54:22.397Z,219.17
2018-12-19T15:56:50.248Z,203.07
2018-12-19T15:59:17.827Z,198.87
2018-12-19T16:01:45.601Z,170.03
2018-12-19T16:04:13.641Z,159.80
2018-12-19T16:06:41.428Z,164.23
2018-12-19T16:09:09.084Z,169.10
2018-12-19T16:11:36.935Z,145.27
2018-12-19T16:14:04.531Z,145.87
2018-12-19T16:16:32.287Z,151.40
2018-12-19T16:18:59.855Z,148.30
2018-12-19T16:21:27.420Z,144.10
2018-12-19T16:23:55.536Z,128.53
2018-12-19T16:26:23.741Z,119.73
2018-12-19T16:28:51.402Z,135.40
2018-12-19T16:31:19.340Z,125.77
2018-12-19T16:33:46.895Z,120.97
2018-12-19T16:36:14.457Z,126.10
2018-12-19T16:38:42.060Z,134.33
2018-12-19T16:41:09.673Z,147.97
2018-12-19T16:43:37.852Z,132.23
2018-12-19T16:46:05.715Z,136.67
2018-12-19T16:48:33.272Z,137.27
2018-12-19T16:51:00.832Z,138.87
2018-12-19T16:53:28.489Z,138.53
2018-12-19T16:55:56.052Z,138.40
2018-12-19T16:58:23.612Z,134.77
2018-12-19T17:00:51.469Z,136.90
2018-12-19T17:03:19.027Z,147.17
2018-12-19T17:05:46.612Z,151.50
2018-12-19T17:08:14.248Z,149.70
2018-12-19T17:10:42.116Z,146.23
2018-12-19T17:13:09.973Z,139.10
2018-12-19T17:15:38.012Z,171.23
2018-12-19T17:18:05.913Z,139.80
2018-12-19T17:20:33.679Z,154.50
2018-12-19T17:23:01.645Z,140.97
2018-12-19T17:25:29.686Z,137.53
2018-12-19T17:27:57.276Z,130.63
2018-12-19T17:30:24.853Z,144.40
2018-12-19T17:32:52.525Z,154.33
2018-12-19T17:35:20.125Z,115.17
2018-12-19T17:37:47.769Z,187.13
2018-12-19T17:40:15.327Z,140.70
2018-12-19T17:42:43.057Z,151.57
2018-12-19T17:45:11.511Z,167.27
2018-12-19T17:47:39.183Z,167.47
2018-12-19T17:50:06.928Z,205.57
2018-12-19T17:52:34.523Z,172.47
2018-12-19T17:55:02.175Z,182.40
2018-12-19T17:57:29.760Z,178.43
2018-12-19T17:59:57.480Z,198.83
2018-12-19T18:02:25.440Z,164.50
2018-12-19T18:04:52.988Z,164.00
2018-12-19T18:07:21.172Z,176.90
2018-12-19T18:09:48.939Z,194.03
2018-12-19T18:12:16.704Z,203.30
2018-12-19T18:14:45.179Z,171.77
2018-12-19T18:17:13.232Z,144.67
2018-12-19T18:19:40.789Z,157.20
2018-12-19T18:22:08.777Z,154.33
2018-12-19T18:24:36.440Z,163.53
2018-12-19T18:27:03.995Z,167.03
2018-12-19T18:29:31.869Z,170.07
2018-12-19T18:31:59.429Z,169.67
2018-12-19T18:34:27.007Z,168.07
2018-12-19T18:36:55.470Z,165.97
2018-12-19T18:39:26.095Z,178.03
2018-12-19T18:41:53.139Z,179.63
2018-12-19T18:44:20.895Z,189.23
2018-12-19T18:46:48.457Z,196.27
2018-12-19T18:49:16.016Z,232.87
2018-12-19T18:51:44.245Z,233.07
2018-12-19T18:54:13.189Z,253.57
2018-12-19T18:56:40.758Z,226.43
2018-12-19T18:59:08.402Z,211.50
2018-12-19T19:01:36.128Z,237.30
2018-12-19T19:04:04.025Z,230.73
2018-12-19T19:06:32.404Z,224.97
2018-12-19T19:08:59.995Z,267.47
2018-12-19T19:11:28.341Z,274.23
2018-12-19T19:13:55.955Z,265.77
2018-12-19T19:16:23.860Z,252.17
2018-12-19T19:18:51.521Z,249.20
2018-12-19T19:21:19.534Z,239.13
2018-12-19T19:23:47.262Z,287.50
2018-12-19T19:26:14.839Z,326.87
2018-12-19T19:28:42.498Z,387.57
2018-12-19T19:31:10.211Z,482.10
2018-12-19T19:33:38.075Z,372.80
2018-12-19T19:36:05.890Z,376.80
2018-12-19T19:38:34.039Z,374.03
2018-12-19T19:41:01.629Z,410.17
2018-12-19T19:43:29.350Z,397.87
2018-12-19T19:45:56.898Z,332.10
2018-12-19T19:48:24.596Z,302.20
2018-12-19T19:50:52.238Z,315.03
2018-12-19T19:53:20.416Z,307.47
2018-12-19T19:55:48.122Z,291.03
2018-12-19T19:58:17.002Z,297.13
2018-12-19T20:00:45.014Z,319.53
2018-12-19T20:03:12.650Z,311.67
2018-12-19T20:05:40.386Z,303.97
2018-12-19T20:08:08.141Z,291.07
2018-12-19T20:10:35.778Z,293.60
2018-12-19T20:13:03.376Z,290.47
2018-12-19T20:15:31.196Z,287.30
2018-12-19T20:17:59.065Z,264.17
2018-12-19T20:20:28.492Z,256.73
2018-12-19T20:22:56.909Z,244.63
2018-12-19T20:25:25.744Z,396.73
2018-12-19T20:27:53.586Z,342.10
2018-12-19T20:30:21.409Z,269.87
2018-12-19T20:32:49.057Z,311.87
2018-12-19T20:35:16.701Z,330.50
2018-12-19T20:37:44.653Z,312.63
2018-12-19T20:40:12.203Z,308.47
2018-12-19T20:42:39.844Z,268.07
2018-12-19T20:45:07.429Z,260.60
2018-12-19T20:47:35.281Z,216.50
2018-12-19T20:50:02.886Z,275.20
2018-12-19T20:52:30.821Z,298.83
2018-12-19T20:54:58.535Z,324.63
2018-12-19T20:57:26.134Z,310.33
2018-12-19T20:59:53.798Z,320.47
2018-12-19T21:02:21.581Z,313.67
2018-12-19T21:04:49.506Z,306.20
2018-12-19T21:07:17.613Z,296.57
2018-12-19T21:09:45.667Z,288.23
2018-12-19T21:12:13.672Z,288.63
2018-12-19T21:14:41.455Z,294.80
2018-12-19T21:17:14.650Z,294.50
2018-12-19T21:19:42.852Z,282.80
2018-12-19T21:22:10.876Z,300.17
2018-12-19T21:24:38.489Z,292.77
2018-12-19T21:27:06.042Z,251.13
2018-12-19T21:29:33.599Z,286.50
2018-12-19T21:32:01.436Z,284.43
2018-12-19T21:34:28.996Z,264.50
2018-12-19T21:36:56.914Z,281.80
2018-12-19T21:39:24.624Z,276.00
2018-12-19T21:41:52.168Z,282.80
2018-12-19T21:44:19.778Z,275.63
2018-12-19T21:46:47.626Z,285.37
2018-12-19T21:49:15.253Z,282.87
2018-12-19T21:51:43.063Z,290.70
2018-12-19T21:54:10.815Z,280.63
2018-12-19T21:56:38.377Z,279.77
2018-12-19T21:59:05.944Z,272.27
2018-12-19T22:01:33.607Z,282.53
2018-12-19T22:04:01.291Z,276.97
2018-12-19T22:06:28.906Z,302.83
2018-12-19T22:08:56.602Z,287.30
2018-12-19T22:11:24.166Z,257.30
2018-12-19T22:13:52.013Z,281.27
2018-12-19T22:16:25.167Z,277.00
2018-12-19T22:18:53.105Z,276.07
2018-12-19T22:21:20.938Z,318.10
2018-12-19T22:23:48.720Z,287.47
2018-12-19T22:26:16.322Z,290.60
2018-12-19T22:28:44.331Z,280.17
2018-12-19T22:31:11.971Z,282.20
2018-12-19T22:33:39.532Z,267.10
2018-12-19T22:36:07.079Z,264.87
2018-12-19T22:38:34.903Z,270.37
2018-12-19T22:41:02.548Z,265.33
2018-12-19T22:43:30.408Z,269.40
2018-12-19T22:45:58.355Z,269.30
2018-12-19T22:48:25.947Z,268.73
2018-12-19T22:50:53.572Z,261.27
2018-12-19T22:53:21.461Z,259.73
2018-12-19T22:55:49.095Z,264.63
2018-12-19T22:58:16.692Z,266.67
2018-12-19T23:00:49.928Z,260.57
2018-12-19T23:03:17.563Z,271.70
2018-12-19T23:05:50.194Z,252.53
2018-12-19T23:08:18.607Z,239.93
2018-12-19T23:10:46.150Z,240.80
2018-12-19T23:13:14.351Z,245.07
2018-12-19T23:15:42.036Z,248.40
2018-12-19T23:18:15.832Z,256.27
2018-12-19T23:20:43.452Z,259.23
2018-12-19T23:23:11.485Z,256.60
2018-12-19T23:25:39.077Z,261.47
2018-12-19T23:28:06.879Z,257.37
2018-12-19T23:30:34.585Z,252.23
2018-12-19T23:33:02.179Z,233.37
2018-12-19T23:35:29.723Z,233.70
2018-12-19T23:37:57.635Z,212.87
2018-12-19T23:40:25.331Z,199.67
2018-12-19T23:42:53.105Z,178.43
2018-12-19T23:45:20.759Z,138.87
2018-12-19T23:47:48.927Z,146.83
2018-12-19T23:50:16.504Z,118.13
2018-12-19T23:52:44.227Z,120.60
2018-12-19T23:55:12.000Z,142.50
2018-12-19T23:57:39.903Z,172.70
